Airfield :
LOGIN :

Register | Disclaimer

   EN    FR    IT 

 










Legend :    VFR   Marginal VFR   IFR   Intensive IFR   Very Intensive IFR
Visi :
Ceiling :
>= 8 km
>= 3000ft
5 to 8 km
1000 to 3000 ft
1500m to 5 km
500 to 1000 ft
800 to 1500m
200 to 500 ft
< 800m
< 200 ft
Symbols :   Thunderstorms  Fog  Heavy snow  Heavy precipitations  Wind > 20 kt
SIGMETs :     Misc.  Thunderstorms  Icing  Turbulence  Mountain Waves  Volcanic Ashes







- Airport Elevation : 284 ft


EGUW - RAF Wattisham

CURRENT METAR :
  • 212150Z 05005KT 4500 BR FEW007 BKN045 03/02 Q1026 GRN

EXPIRED METARs :
  • 212050Z 01004KT 5000 HZ FEW010 BKN045 02/01 Q1026 WHT BECMG 4000 BR GRN
  • 211950Z 05004KT 7000 HZ FEW010 SCT040 03/02 Q1025 WHT TEMPO BKN008 GRN

TAF TAF EGUW
Valid from the 21 at 21:00 until the 22 at 00:00 UTC


211948Z 2121/2124 03005KT 5000 HZ FEW008
BECMG 2121/2122 4000 BR
TEMPO 2121/2124 2500 BKN007
PROB30 2121/2124 BKN005
No reported NOTAMs for that airfield.



MET'MAP, your aeronautical weather chart ! - Copyright ORBIFLY December 2007 - Disclaimer

ORBIFLY MET'MAP TEAM :

Programming & Development : Alexandra Zaïnal
Concept & Development : Baudouin d'Aumeries
Co-Development & Prog : Marc-Olivier Méhu
Technical & hardware support : Manuel Goepfert

Contact : metmap@orbifly.com




SOURCES & CREDITS :

   NOAA